createdAt,value
2023-02-24T00:00:34.128Z,29.30
2023-02-24T00:03:06.423Z,30.83
2023-02-24T00:05:37.468Z,30.03
2023-02-24T00:08:07.324Z,29.07
2023-02-24T00:10:37.743Z,29.20
2023-02-24T00:13:06.136Z,26.40
2023-02-24T00:15:35.476Z,28.70
2023-02-24T00:18:07.380Z,28.53
2023-02-24T00:20:35.915Z,29.27
2023-02-24T00:23:04.251Z,26.13
2023-02-24T00:25:33.927Z,27.37
2023-02-24T00:28:02.388Z,30.47
2023-02-24T00:30:33.099Z,25.17
2023-02-24T00:33:04.213Z,24.00
2023-02-24T00:35:33.974Z,28.10
2023-02-24T00:38:02.244Z,23.23
2023-02-24T00:40:30.797Z,27.03
2023-02-24T00:43:00.725Z,25.93
2023-02-24T00:45:31.172Z,24.23
2023-02-24T00:47:59.582Z,25.47
2023-02-24T00:50:27.865Z,23.20
2023-02-24T00:52:56.310Z,21.67
2023-02-24T00:55:24.971Z,21.23
2023-02-24T00:57:53.290Z,19.60
2023-02-24T01:00:24.386Z,17.00
2023-02-24T01:02:52.779Z,16.57
2023-02-24T01:05:21.374Z,15.43
2023-02-24T01:07:49.669Z,14.23
2023-02-24T01:10:18.537Z,14.07
2023-02-24T01:12:49.992Z,12.17
2023-02-24T01:15:21.096Z,11.57
2023-02-24T01:17:50.948Z,10.03
2023-02-24T01:20:19.738Z,10.20
2023-02-24T01:22:50.700Z,9.67
2023-02-24T01:25:20.998Z,9.40
2023-02-24T01:27:49.830Z,8.90
2023-02-24T01:30:19.532Z,8.47
2023-02-24T01:32:48.641Z,8.20
2023-02-24T01:35:18.856Z,7.77
2023-02-24T01:37:47.245Z,7.37
2023-02-24T01:40:18.844Z,7.20
2023-02-24T01:42:50.613Z,6.53
2023-02-24T01:45:25.183Z,7.37
2023-02-24T01:47:55.893Z,6.50
2023-02-24T01:50:28.004Z,6.53
2023-02-24T01:53:01.960Z,6.53
2023-02-24T01:55:34.495Z,6.70
2023-02-24T01:58:08.115Z,6.20
2023-02-24T02:00:45.478Z,6.53
2023-02-24T02:03:25.537Z,4.90
2023-02-24T02:06:01.166Z,5.00
2023-02-24T02:08:30.730Z,5.27
2023-02-24T02:11:04.258Z,4.13
2023-02-24T02:13:36.042Z,4.50
2023-02-24T02:16:38.790Z,4.40
2023-02-24T02:19:31.935Z,3.57
2023-02-24T02:22:08.809Z,4.07
2023-02-24T02:24:51.345Z,4.30
2023-02-24T02:28:07.748Z,4.60
2023-02-24T02:31:02.140Z,5.20
2023-02-24T02:34:17.182Z,3.90
2023-02-24T02:36:57.332Z,4.43
2023-02-24T02:39:34.109Z,4.77
2023-02-24T02:42:15.230Z,3.90
2023-02-24T02:44:55.965Z,4.23
2023-02-24T02:47:33.047Z,4.10
2023-02-24T02:50:11.387Z,3.93
2023-02-24T02:52:44.192Z,4.30
2023-02-24T02:55:15.492Z,3.93
2023-02-24T02:57:47.662Z,3.93
2023-02-24T03:00:23.308Z,3.40
2023-02-24T03:02:56.564Z,3.97
2023-02-24T03:05:31.088Z,4.50
2023-02-24T03:08:04.813Z,3.47
2023-02-24T03:10:35.089Z,4.17
2023-02-24T03:13:07.348Z,3.50
2023-02-24T03:15:42.163Z,3.33
2023-02-24T03:18:18.482Z,3.27
2023-02-24T03:20:52.792Z,3.80
2023-02-24T03:23:26.062Z,3.20
2023-02-24T03:25:59.143Z,3.50
2023-02-24T03:28:36.004Z,3.50
2023-02-24T03:31:11.285Z,3.53
2023-02-24T03:33:44.748Z,3.57
2023-02-24T03:36:15.245Z,3.77
2023-02-24T03:38:49.765Z,3.40
2023-02-24T03:41:19.105Z,3.80
2023-02-24T03:43:51.583Z,2.90
2023-02-24T03:46:20.233Z,3.33
2023-02-24T03:48:52.915Z,3.17
2023-02-24T03:51:24.398Z,3.47
2023-02-24T03:54:05.768Z,4.10
2023-02-24T03:56:46.998Z,4.03
2023-02-24T03:59:25.334Z,4.10
2023-02-24T04:01:58.176Z,3.50
2023-02-24T04:04:34.127Z,4.40
2023-02-24T04:07:11.132Z,3.53
2023-02-24T04:09:44.222Z,3.90
2023-02-24T04:12:19.975Z,4.17
2023-02-24T04:14:51.832Z,4.57
2023-02-24T04:17:24.313Z,3.10
2023-02-24T04:19:55.930Z,5.00
2023-02-24T04:22:28.018Z,4.50
2023-02-24T04:25:01.575Z,3.70
2023-02-24T04:27:30.351Z,4.47
2023-02-24T04:30:01.175Z,4.10
2023-02-24T04:32:31.562Z,4.40
2023-02-24T04:35:06.605Z,4.20
2023-02-24T04:37:38.792Z,3.90
2023-02-24T04:40:12.475Z,4.30
2023-02-24T04:42:46.717Z,4.37
2023-02-24T04:45:16.610Z,3.73
2023-02-24T04:47:49.515Z,4.33
2023-02-24T04:50:23.268Z,3.00
2023-02-24T04:52:54.866Z,3.83
2023-02-24T04:55:26.549Z,3.73
2023-02-24T04:57:55.217Z,3.93
2023-02-24T05:00:26.764Z,4.10
2023-02-24T05:02:57.415Z,3.53
2023-02-24T05:05:27.732Z,3.53
2023-02-24T05:08:02.964Z,3.37
2023-02-24T05:10:33.347Z,2.93
2023-02-24T05:13:02.573Z,3.03
2023-02-24T05:15:32.156Z,3.50
2023-02-24T05:18:01.013Z,3.83
2023-02-24T05:20:46.907Z,3.67
2023-02-24T05:23:17.191Z,2.30
2023-02-24T05:25:46.060Z,4.57
2023-02-24T05:28:14.074Z,2.80
2023-02-24T05:30:42.139Z,3.23
2023-02-24T05:33:10.646Z,2.67
2023-02-24T05:35:38.805Z,2.50
2023-02-24T05:38:08.241Z,2.33
2023-02-24T05:40:45.576Z,2.47
2023-02-24T05:43:18.094Z,2.43
2023-02-24T05:45:46.563Z,2.50
2023-02-24T05:48:15.639Z,2.27
2023-02-24T05:50:46.223Z,2.07
2023-02-24T05:53:14.344Z,2.23
2023-02-24T05:55:45.084Z,2.30
2023-02-24T05:58:13.276Z,1.80
2023-02-24T06:00:46.115Z,2.10
2023-02-24T06:03:17.608Z,2.17
2023-02-24T06:05:53.523Z,2.07
2023-02-24T06:08:24.361Z,1.83
2023-02-24T06:10:54.051Z,2.00
2023-02-24T06:13:22.146Z,1.63
2023-02-24T06:15:55.712Z,1.70
2023-02-24T06:18:23.952Z,1.63
2023-02-24T06:20:52.060Z,2.17
2023-02-24T06:23:20.371Z,2.23
2023-02-24T06:25:48.622Z,1.97
2023-02-24T06:28:19.951Z,1.80
2023-02-24T06:30:48.170Z,1.90
2023-02-24T06:33:16.339Z,2.00
2023-02-24T06:35:44.449Z,2.13
2023-02-24T06:38:12.573Z,2.00
2023-02-24T06:40:40.671Z,1.70
2023-02-24T06:43:10.922Z,2.17
2023-02-24T06:45:41.104Z,2.03
2023-02-24T06:48:09.538Z,1.80
2023-02-24T06:50:38.736Z,1.60
2023-02-24T06:53:16.818Z,2.30
2023-02-24T06:55:46.597Z,1.90
2023-02-24T06:58:18.179Z,2.17
2023-02-24T07:00:56.803Z,1.63
2023-02-24T07:03:39.217Z,1.97
2023-02-24T07:06:25.775Z,2.20
2023-02-24T07:08:54.662Z,1.73
2023-02-24T07:11:23.397Z,2.20
2023-02-24T07:13:54.547Z,1.83
2023-02-24T07:16:25.395Z,1.80
2023-02-24T07:18:56.619Z,1.80
2023-02-24T07:21:26.285Z,1.90
2023-02-24T07:23:58.945Z,1.83
2023-02-24T07:26:30.358Z,2.20
2023-02-24T07:28:58.426Z,1.87
2023-02-24T07:31:27.976Z,1.60
2023-02-24T07:33:57.740Z,2.00
2023-02-24T07:36:30.126Z,1.70
2023-02-24T07:38:59.965Z,2.20
2023-02-24T07:41:30.431Z,2.10
2023-02-24T07:44:03.196Z,2.03
2023-02-24T07:46:33.421Z,1.83
2023-02-24T07:49:03.253Z,2.30
2023-02-24T07:51:31.510Z,1.80
2023-02-24T07:54:01.396Z,2.17
2023-02-24T07:56:31.294Z,1.93
2023-02-24T07:59:01.108Z,1.83
2023-02-24T08:01:30.468Z,1.87
2023-02-24T08:04:01.481Z,1.90
2023-02-24T08:06:37.868Z,1.90
2023-02-24T08:09:17.512Z,2.20
2023-02-24T08:11:47.125Z,1.90
2023-02-24T08:14:16.484Z,1.90
2023-02-24T08:16:48.713Z,2.00
2023-02-24T08:19:21.302Z,2.30
2023-02-24T08:21:51.350Z,1.50
2023-02-24T08:24:25.375Z,1.80
2023-02-24T08:27:04.348Z,2.10
2023-02-24T08:29:40.116Z,2.30
2023-02-24T08:32:09.473Z,1.80
2023-02-24T08:34:39.532Z,2.07
2023-02-24T08:37:07.654Z,2.30
2023-02-24T08:39:36.515Z,2.20
2023-02-24T08:42:04.913Z,1.90
2023-02-24T08:44:35.038Z,2.93
2023-02-24T08:47:05.383Z,2.13
2023-02-24T08:49:33.790Z,2.50
2023-02-24T08:52:07.250Z,2.27
2023-02-24T08:54:48.039Z,2.47
2023-02-24T08:57:18.348Z,2.43
2023-02-24T08:59:50.025Z,2.43
2023-02-24T09:02:24.233Z,1.60
2023-02-24T09:04:54.763Z,2.70
2023-02-24T09:07:26.323Z,2.50
2023-02-24T09:09:56.576Z,2.73
2023-02-24T09:12:26.432Z,2.50
2023-02-24T09:14:56.562Z,2.23
2023-02-24T09:17:46.165Z,2.37
2023-02-24T09:20:34.465Z,2.40
2023-02-24T09:23:05.825Z,2.17
2023-02-24T09:25:41.471Z,2.90
2023-02-24T09:28:17.085Z,2.27
2023-02-24T09:30:54.477Z,2.00
2023-02-24T09:33:25.910Z,2.47
2023-02-24T09:36:03.244Z,2.13
2023-02-24T09:38:50.306Z,2.30
2023-02-24T09:41:32.058Z,1.93
2023-02-24T09:44:18.125Z,2.00
2023-02-24T09:46:54.812Z,2.40
2023-02-24T09:49:28.526Z,1.80
2023-02-24T09:52:08.946Z,2.20
2023-02-24T09:54:38.686Z,2.23
2023-02-24T09:57:16.967Z,2.53
2023-02-24T10:00:01.194Z,1.97
2023-02-24T10:02:44.288Z,1.67
2023-02-24T10:05:23.224Z,1.43
2023-02-24T10:07:53.263Z,2.17
2023-02-24T10:10:29.071Z,1.57
2023-02-24T10:13:13.115Z,2.23
2023-02-24T10:15:59.602Z,1.80
2023-02-24T10:18:33.755Z,1.97
2023-02-24T10:21:15.644Z,1.73
2023-02-24T10:23:59.631Z,1.83
2023-02-24T10:26:51.339Z,1.67
2023-02-24T10:29:39.297Z,1.70
2023-02-24T10:32:23.837Z,1.50
2023-02-24T10:34:52.479Z,1.80
2023-02-24T10:37:28.625Z,1.77
2023-02-24T10:39:59.819Z,1.70
2023-02-24T10:42:32.723Z,1.67
2023-02-24T10:45:20.057Z,1.67
2023-02-24T10:47:56.812Z,1.80
2023-02-24T10:50:29.801Z,1.80
2023-02-24T10:53:26.595Z,1.60
2023-02-24T10:56:15.336Z,1.80
2023-02-24T10:58:49.667Z,1.40
2023-02-24T11:01:21.741Z,1.93
2023-02-24T11:04:02.133Z,1.53
2023-02-24T11:06:52.603Z,1.73
2023-02-24T11:09:35.207Z,1.63
2023-02-24T11:12:25.914Z,1.70
2023-02-24T11:15:15.897Z,1.87
2023-02-24T11:17:50.885Z,1.97
2023-02-24T11:20:42.480Z,1.93
2023-02-24T11:23:18.654Z,1.90
2023-02-24T11:25:49.788Z,2.20
2023-02-24T11:28:32.564Z,1.93
2023-02-24T11:31:12.051Z,2.40
2023-02-24T11:33:47.903Z,2.63
2023-02-24T11:36:25.994Z,1.90
2023-02-24T11:39:17.256Z,2.10
2023-02-24T11:41:54.001Z,2.50
2023-02-24T11:44:29.132Z,2.00
2023-02-24T11:47:07.316Z,2.13
2023-02-24T11:49:42.341Z,2.97
2023-02-24T11:52:17.251Z,2.43
2023-02-24T11:54:51.396Z,2.50
2023-02-24T11:57:25.032Z,2.37
2023-02-24T12:00:04.402Z,2.40
2023-02-24T12:02:40.573Z,2.33
2023-02-24T12:05:14.894Z,2.63
2023-02-24T12:07:46.840Z,2.50
2023-02-24T12:10:21.302Z,2.50
2023-02-24T12:12:58.178Z,2.43
2023-02-24T12:15:30.781Z,3.33
2023-02-24T12:18:11.759Z,2.63
2023-02-24T12:20:49.088Z,2.30
2023-02-24T12:23:23.209Z,3.10
2023-02-24T12:26:04.916Z,2.10
2023-02-24T12:28:46.713Z,3.10
2023-02-24T12:31:25.525Z,2.63
2023-02-24T12:34:04.401Z,2.20
2023-02-24T12:36:46.730Z,2.80
2023-02-24T12:39:18.202Z,2.13
2023-02-24T12:42:02.430Z,2.80
2023-02-24T12:44:45.874Z,2.07
2023-02-24T12:47:17.190Z,2.37
2023-02-24T12:50:11.959Z,2.87
2023-02-24T12:52:52.692Z,3.10
2023-02-24T12:55:26.590Z,2.97
2023-02-24T12:58:05.001Z,2.70
2023-02-24T13:00:41.921Z,3.17
2023-02-24T13:03:25.287Z,2.80
2023-02-24T13:06:06.175Z,3.77
2023-02-24T13:08:45.442Z,4.27
2023-02-24T13:11:25.760Z,3.30
2023-02-24T13:14:00.141Z,3.70
2023-02-24T13:16:33.339Z,3.57
2023-02-24T13:19:18.778Z,3.60
2023-02-24T13:21:59.988Z,3.50
2023-02-24T13:24:28.242Z,3.33
2023-02-24T13:27:07.372Z,3.50
2023-02-24T13:29:46.141Z,3.03
2023-02-24T13:32:30.175Z,3.00
2023-02-24T13:35:01.237Z,2.90
2023-02-24T13:37:34.434Z,3.40
2023-02-24T13:40:16.477Z,2.97
2023-02-24T13:42:45.950Z,2.73
2023-02-24T13:45:22.029Z,3.00
2023-02-24T13:48:29.279Z,3.20
2023-02-24T13:51:26.673Z,3.27
2023-02-24T13:54:10.682Z,2.93
2023-02-24T13:56:44.719Z,3.03
2023-02-24T13:59:25.227Z,3.20
2023-02-24T14:02:00.435Z,3.43
2023-02-24T14:04:31.444Z,3.43
2023-02-24T14:07:03.515Z,3.00
2023-02-24T14:09:36.274Z,3.40
2023-02-24T14:12:12.988Z,3.77
2023-02-24T14:14:41.543Z,3.57
2023-02-24T14:17:24.419Z,3.20
2023-02-24T14:19:52.575Z,3.50
2023-02-24T14:22:22.274Z,3.40
2023-02-24T14:25:02.793Z,3.20
2023-02-24T14:27:31.230Z,3.17
2023-02-24T14:30:00.301Z,4.10
2023-02-24T14:32:29.643Z,3.30
2023-02-24T14:34:58.108Z,4.20
2023-02-24T14:37:29.389Z,3.83
2023-02-24T14:40:05.598Z,3.50
2023-02-24T14:42:33.738Z,3.90
2023-02-24T14:45:02.409Z,3.80
2023-02-24T14:47:32.615Z,3.60
2023-02-24T14:50:03.374Z,3.50
2023-02-24T14:52:40.802Z,3.90
2023-02-24T14:55:15.802Z,3.80
2023-02-24T14:57:48.517Z,3.73
2023-02-24T15:00:23.969Z,3.40
2023-02-24T15:02:56.763Z,3.30
2023-02-24T15:05:25.305Z,3.77
2023-02-24T15:07:53.462Z,3.20
2023-02-24T15:10:25.996Z,3.50
2023-02-24T15:12:57.110Z,3.53
2023-02-24T15:15:28.785Z,3.30
2023-02-24T15:17:59.196Z,3.00
2023-02-24T15:20:33.516Z,3.10
2023-02-24T15:23:02.019Z,3.27
2023-02-24T15:25:43.533Z,3.37
2023-02-24T15:28:25.591Z,3.23
2023-02-24T15:31:03.187Z,3.30
2023-02-24T15:33:36.180Z,3.20
2023-02-24T15:36:11.529Z,3.07
2023-02-24T15:38:43.278Z,3.10
2023-02-24T15:41:14.295Z,3.67
2023-02-24T15:43:49.170Z,3.20
2023-02-24T15:46:29.933Z,3.37
2023-02-24T15:49:02.910Z,3.43
2023-02-24T15:51:36.329Z,3.20
2023-02-24T15:54:06.698Z,3.67
2023-02-24T15:56:37.530Z,3.30
2023-02-24T15:59:06.114Z,3.77
2023-02-24T16:01:35.201Z,4.50
2023-02-24T16:04:04.745Z,14.50
2023-02-24T16:06:33.989Z,9.63
2023-02-24T16:09:05.196Z,5.93
2023-02-24T16:11:39.753Z,4.43
2023-02-24T16:14:10.558Z,5.33
2023-02-24T16:16:39.036Z,5.23
2023-02-24T16:19:07.361Z,5.03
2023-02-24T16:21:36.373Z,5.03
2023-02-24T16:24:04.810Z,5.80
2023-02-24T16:26:39.019Z,5.80
2023-02-24T16:29:11.700Z,5.67
2023-02-24T16:31:41.288Z,6.97
2023-02-24T16:34:10.134Z,6.57
2023-02-24T16:36:38.505Z,7.37
2023-02-24T16:39:06.779Z,8.17
2023-02-24T16:41:35.369Z,7.00
2023-02-24T16:44:05.078Z,8.67
2023-02-24T16:46:37.684Z,8.20
2023-02-24T16:49:09.238Z,9.33
2023-02-24T16:51:39.131Z,9.50
2023-02-24T16:54:08.412Z,10.27
2023-02-24T16:56:36.794Z,9.97
2023-02-24T16:59:06.589Z,10.40
2023-02-24T17:01:35.033Z,10.37
2023-02-24T17:04:05.371Z,14.40
2023-02-24T17:06:33.847Z,11.13
2023-02-24T17:09:02.541Z,10.83
2023-02-24T17:11:31.031Z,11.80
2023-02-24T17:13:59.803Z,10.80
2023-02-24T17:16:29.673Z,11.80
2023-02-24T17:18:58.174Z,12.50
2023-02-24T17:21:26.677Z,12.30
2023-02-24T17:23:55.058Z,13.60
2023-02-24T17:26:23.877Z,13.80
2023-02-24T17:28:52.505Z,12.80
2023-02-24T17:31:20.974Z,13.50
2023-02-24T17:33:50.786Z,13.93
2023-02-24T17:36:19.611Z,12.87
2023-02-24T17:38:48.165Z,13.67
2023-02-24T17:41:16.463Z,14.20
2023-02-24T17:43:44.844Z,15.10
2023-02-24T17:46:13.525Z,15.10
2023-02-24T17:48:41.912Z,15.03
2023-02-24T17:51:14.772Z,16.47
2023-02-24T17:53:43.660Z,16.17
2023-02-24T17:56:12.541Z,16.40
2023-02-24T17:58:41.381Z,17.53
2023-02-24T18:01:09.783Z,18.60
2023-02-24T18:03:38.303Z,18.23
2023-02-24T18:06:09.399Z,17.97
2023-02-24T18:08:40.684Z,19.00
2023-02-24T18:11:12.864Z,19.37
2023-02-24T18:13:41.227Z,19.00
2023-02-24T18:16:11.907Z,19.60
2023-02-24T18:18:42.770Z,19.83
2023-02-24T18:21:11.191Z,17.70
2023-02-24T18:23:41.317Z,20.57
2023-02-24T18:26:12.463Z,20.47
2023-02-24T18:28:40.996Z,19.03
2023-02-24T18:31:14.866Z,18.97
2023-02-24T18:33:44.634Z,19.33
2023-02-24T18:36:13.514Z,20.30
2023-02-24T18:38:43.229Z,19.43
2023-02-24T18:41:14.267Z,20.27
2023-02-24T18:43:43.400Z,20.90
2023-02-24T18:46:14.320Z,21.17
2023-02-24T18:48:44.538Z,21.67
2023-02-24T18:51:14.186Z,21.47
2023-02-24T18:53:44.406Z,21.13
2023-02-24T18:56:16.911Z,20.67
2023-02-24T18:58:45.733Z,23.23
2023-02-24T19:01:16.245Z,31.33
2023-02-24T19:03:45.405Z,33.67
2023-02-24T19:06:14.540Z,23.87
2023-02-24T19:08:44.864Z,23.23
2023-02-24T19:11:15.728Z,22.60
2023-02-24T19:13:44.898Z,20.53
2023-02-24T19:16:13.297Z,19.40
2023-02-24T19:18:41.817Z,22.37
2023-02-24T19:21:11.305Z,20.40
2023-02-24T19:23:39.880Z,21.80
2023-02-24T19:26:20.283Z,21.80
2023-02-24T19:28:49.556Z,21.50
2023-02-24T19:31:20.868Z,21.50
2023-02-24T19:33:54.646Z,22.30
2023-02-24T19:36:23.801Z,22.13
2023-02-24T19:38:52.634Z,22.47
2023-02-24T19:41:22.807Z,23.43
2023-02-24T19:43:51.148Z,21.87
2023-02-24T19:46:20.052Z,24.23
2023-02-24T19:48:48.818Z,23.97
2023-02-24T19:51:19.095Z,23.33
2023-02-24T19:53:48.060Z,23.30
2023-02-24T19:56:16.351Z,23.47
2023-02-24T19:58:47.907Z,23.13
2023-02-24T20:01:16.330Z,22.67
2023-02-24T20:03:44.741Z,22.17
2023-02-24T20:06:19.478Z,22.63
2023-02-24T20:08:47.989Z,23.20
2023-02-24T20:11:16.272Z,21.73
2023-02-24T20:13:45.942Z,23.67
2023-02-24T20:16:17.024Z,24.57
2023-02-24T20:18:45.874Z,24.63
2023-02-24T20:21:15.140Z,25.17
2023-02-24T20:23:44.077Z,24.63
2023-02-24T20:26:16.214Z,24.17
2023-02-24T20:28:46.920Z,26.27
2023-02-24T20:31:18.689Z,26.43
2023-02-24T20:33:48.847Z,27.77
2023-02-24T20:36:20.091Z,27.93
2023-02-24T20:38:49.237Z,26.57
2023-02-24T20:41:18.012Z,27.80
2023-02-24T20:43:47.917Z,27.83
2023-02-24T20:46:18.981Z,24.43
2023-02-24T20:48:47.673Z,24.87
2023-02-24T20:51:16.003Z,27.97
2023-02-24T20:53:56.656Z,25.50
2023-02-24T20:56:27.170Z,27.00
2023-02-24T20:59:00.788Z,26.10
2023-02-24T21:01:29.823Z,25.13
2023-02-24T21:03:58.662Z,27.60
2023-02-24T21:06:28.057Z,28.57
2023-02-24T21:08:56.918Z,26.10
2023-02-24T21:11:25.566Z,27.80
2023-02-24T21:13:54.027Z,27.63
2023-02-24T21:16:25.195Z,26.80
2023-02-24T21:18:54.140Z,26.07
2023-02-24T21:21:22.600Z,28.47
2023-02-24T21:23:52.170Z,28.87
2023-02-24T21:26:21.592Z,26.37
2023-02-24T21:29:00.513Z,28.70
2023-02-24T21:31:31.723Z,29.03
2023-02-24T21:34:00.978Z,28.40
2023-02-24T21:36:29.704Z,28.00
2023-02-24T21:38:58.823Z,26.87
2023-02-24T21:41:28.312Z,25.87
2023-02-24T21:43:57.400Z,23.53
2023-02-24T21:46:28.697Z,26.73
2023-02-24T21:49:00.217Z,25.20
2023-02-24T21:51:32.636Z,25.97
2023-02-24T21:54:01.798Z,26.50
2023-02-24T21:56:30.895Z,25.50
2023-02-24T21:59:01.482Z,26.97
2023-02-24T22:01:31.777Z,24.83
2023-02-24T22:04:03.507Z,26.57
2023-02-24T22:06:34.509Z,23.77
2023-02-24T22:09:04.898Z,23.87
2023-02-24T22:11:35.944Z,23.83
2023-02-24T22:14:04.765Z,21.70
2023-02-24T22:16:33.399Z,24.10
2023-02-24T22:19:03.024Z,20.77
2023-02-24T22:21:31.984Z,21.33
2023-02-24T22:24:02.458Z,21.77
2023-02-24T22:26:32.146Z,20.97
2023-02-24T22:29:01.015Z,19.13
2023-02-24T22:31:31.814Z,19.97
2023-02-24T22:34:00.677Z,18.53
2023-02-24T22:36:33.318Z,20.47
2023-02-24T22:39:02.546Z,18.30
2023-02-24T22:41:32.994Z,18.87
2023-02-24T22:44:02.042Z,17.90
2023-02-24T22:46:32.566Z,16.37
2023-02-24T22:49:01.215Z,17.20
2023-02-24T22:51:31.126Z,15.70
2023-02-24T22:53:59.251Z,15.07
2023-02-24T22:56:29.965Z,13.60
2023-02-24T22:58:58.711Z,13.23
2023-02-24T23:01:29.440Z,11.90
2023-02-24T23:04:00.715Z,11.50
2023-02-24T23:06:31.016Z,10.43
2023-02-24T23:09:00.902Z,9.60
2023-02-24T23:11:30.746Z,8.30
2023-02-24T23:14:00.750Z,7.10
2023-02-24T23:16:32.281Z,8.33
2023-02-24T23:19:04.255Z,6.90
2023-02-24T23:21:38.014Z,6.60
2023-02-24T23:24:07.837Z,5.80
2023-02-24T23:26:38.775Z,6.60
2023-02-24T23:29:07.697Z,5.30
2023-02-24T23:31:35.882Z,5.73
2023-02-24T23:34:06.524Z,5.60
2023-02-24T23:36:36.930Z,5.20
2023-02-24T23:39:05.929Z,5.40
2023-02-24T23:41:35.352Z,5.10
2023-02-24T23:44:03.710Z,5.10
2023-02-24T23:46:33.657Z,4.83
2023-02-24T23:49:01.810Z,4.70
2023-02-24T23:51:45.740Z,5.13
2023-02-24T23:54:18.528Z,4.10
2023-02-24T23:56:47.062Z,4.57
2023-02-24T23:59:15.618Z,4.63
